Terminal Aerodrome Forecast
Issued by NWS Twin Cities, MN

Home | Current Version | Previous Version | Graphics & Text | Print | Product List | Glossary On
Versions: 1 2 3 4 5 6 7 8 9 10 11 12 13 14 15
000
FTUS43 KMPX 281120
TAFEAU
TAF
KEAU 281120Z 2812/2912 13005KT P6SM FEW060
     FM281400 15011KT 5SM -TSRA BKN060CB
      TEMPO 2815/2818 2SM -TSRA BR OVC020CB
     FM281800 16015G22KT P6SM -SHRA SCT020 OVC035
     FM282000 17016G23KT P6SM VCSH BKN035 OVC050
     FM290200 19012KT P6SM VCTS BKN040CB
     FM290500 25006KT P6SM BKN250=

USA.gov is the U.S. government's official web portal to all federal, state and local government web resources and services.